Weather at Sinanju Highway Strip

Public forecast

Using degrees Celsius for public forecast. Weather courtesy of forecast.io.

Closest aviation weather report (METAR) to Sinanju Highway Strip

Report is more than 6 hours old.

Closest report is Pyongyang Sunan International Airport, 27.1 nm (50.2 km) S. Retrieved 2014/10/31 02:00 UTC (6 years ago):

ZKPY 310200Z 0000MPS 5000 BR SCT200 17/06 Q1019 NOSIG

Closest aviation forecast (TAF) to Sinanju Highway Strip

Forecast is more than 12 hours old.

Closest forecast is Pyongyang Sunan International Airport, 27.1 nm (50.2 km) S. Retrieved 2020/10/24 06:12 UTC (13 hours ago):

TAF TAF ZKPY 240400Z 2406/2506 30004MPS CAVOK TX13/2406Z TN04/2421Z